Time;durP1;ratioP1;P1;durP2;ratioP2;P2;SDS_P1;SDS_P2;PMS_P1;PMS_P2;Temp;Humidity;BMP_temperature;BMP_pressure;BME280_temperature;BME280_humidity;BME280_pressure;Samples;Min_cycle;Max_cycle;Signal;HPM_P1;HPM_P2
2023/11/17 00:01:03;;;;;;;;;;;;;;;5.92;100.00;101604.50;5039154;28;19967;-41
2023/11/17 00:03:29;;;;;;;;;;;;;;;5.93;100.00;101600.84;5036725;28;19913;-40
2023/11/17 00:05:54;;;;;;;;;;;;;;;5.90;100.00;101601.09;5039238;28;20008;-40
2023/11/17 00:08:20;;;;;;;;;;;;;;;5.91;100.00;101605.44;5036805;28;19913;-40
2023/11/17 00:10:45;;;;;;;;;;;;;;;5.93;100.00;101602.66;5036586;28;20283;-40
2023/11/17 00:13:11;;;;;;;;;;;;;;;5.94;100.00;101607.03;5029505;28;19921;-42
2023/11/17 00:15:36;;;;;;;;;;;;;;;5.92;100.00;101615.19;5017556;28;19924;-38
2023/11/17 00:18:01;;;;;;;;;;;;;;;5.93;100.00;101622.22;5017002;28;19913;-40
2023/11/17 00:20:26;;;;;;;;;;;;;;;5.92;100.00;101617.84;5022969;28;19913;-40
2023/11/17 00:22:52;;;;;;;;;;;;;;;5.96;100.00;101622.97;5038029;28;19949;-39
2023/11/17 00:25:17;;;;;;;;;;;;;;;5.95;100.00;101624.78;5051002;28;19917;-40
2023/11/17 00:27:42;;;;;;;;;;;;;;;5.98;100.00;101629.00;5040537;28;19924;-41
2023/11/17 00:30:08;;;;;;;;;;;;;;;5.97;100.00;101633.50;5052152;28;19920;-40
2023/11/17 00:32:33;;;;;;;;;;;;;;;5.98;100.00;101634.34;5041495;28;20279;-39
2023/11/17 00:34:59;;;;;;;;;;;;;;;6.00;100.00;101640.41;5046842;28;19925;-39
2023/11/17 00:37:25;;;;;;;;;;;;;;;5.98;100.00;101640.53;5038497;28;20011;-41
2023/11/17 00:39:50;;;;;;;;;;;;;;;5.98;100.00;101635.19;5019445;28;19917;-40
2023/11/17 00:42:15;;;;;;;;;;;;;;;5.96;100.00;101630.97;5016321;28;19921;-40
2023/11/17 00:44:40;;;;;;;;;;;;;;;5.96;100.00;101644.34;5016333;28;19913;-39
2023/11/17 00:47:05;;;;;;;;;;;;;;;5.91;100.00;101634.84;5021619;28;20342;-40
2023/11/17 00:49:31;;;;;;;;;;;;;;;5.90;100.00;101638.50;5036163;28;19913;-40
2023/11/17 00:51:56;;;;;;;;;;;;;;;5.91;100.00;101645.53;5035706;28;20016;-39
2023/11/17 00:54:26;;;;;;;;;;;;;;;5.92;100.00;101652.59;5035708;28;19920;-41
2023/11/17 00:56:54;;;;;;;;;;;;;;;5.92;100.00;101652.59;5034570;28;20209;-40
2023/11/17 00:59:19;;;;;;;;;;;;;;;5.93;100.00;101653.41;5036277;28;20015;-41
2023/11/17 01:01:44;;;;;;;;;;;;;;;5.96;100.00;101658.53;5036361;28;19968;-41
2023/11/17 01:04:09;;;;;;;;;;;;;;;6.00;100.00;101649.25;5026617;28;19928;-40
2023/11/17 01:06:34;;;;;;;;;;;;;;;6.02;100.00;101659.81;5016145;28;19910;-41
2023/11/17 01:09:00;;;;;;;;;;;;;;;6.03;100.00;101665.03;5013909;28;19917;-39
2023/11/17 01:11:26;;;;;;;;;;;;;;;6.02;100.00;101668.69;5018231;28;19921;-40
2023/11/17 01:13:51;;;;;;;;;;;;;;;5.98;100.00;101667.28;5035620;28;20326;-39
2023/11/17 01:16:17;;;;;;;;;;;;;;;5.97;100.00;101670.06;5036444;28;19919;-41
2023/11/17 01:18:42;;;;;;;;;;;;;;;5.97;100.00;101676.25;5036244;28;19913;-40
2023/11/17 01:21:08;;;;;;;;;;;;;;;5.98;100.00;101677.09;5037271;28;20287;-40
2023/11/17 01:23:33;;;;;;;;;;;;;;;5.98;100.00;101679.75;5008808;28;19917;-40
2023/11/17 01:25:58;;;;;;;;;;;;;;;5.99;100.00;101670.78;5026641;28;19917;-40
2023/11/17 01:28:23;;;;;;;;;;;;;;;6.01;100.00;101676.84;5027276;28;20291;-40
2023/11/17 01:30:49;;;;;;;;;;;;;;;6.02;100.00;101675.84;5019847;28;19971;-40
2023/11/17 01:33:14;;;;;;;;;;;;;;;6.02;100.00;101675.84;5016861;28;19940;-41
2023/11/17 01:35:39;;;;;;;;;;;;;;;6.01;100.00;101679.50;5007732;28;19918;-40
2023/11/17 01:38:04;;;;;;;;;;;;;;;6.00;100.00;101681.31;5016223;28;19924;-40
2023/11/17 01:40:30;;;;;;;;;;;;;;;5.99;100.00;101681.47;5013590;28;19924;-39
2023/11/17 01:43:05;;;;;;;;;;;;;;;5.94;100.00;101690.72;5019014;28;20193;-40
2023/11/17 01:45:30;;;;;;;;;;;;;;;5.93;100.00;101685.47;5015925;28;19972;-41
2023/11/17 01:47:55;;;;;;;;;;;;;;;5.94;100.00;101687.19;5015149;28;19918;-40
2023/11/17 01:50:21;;;;;;;;;;;;;;;5.94;100.00;101682.69;5033022;28;19917;-41
2023/11/17 01:52:46;;;;;;;;;;;;;;;5.98;100.00;101688.66;5032310;28;20154;-40
2023/11/17 01:55:12;;;;;;;;;;;;;;;5.97;100.00;101686.94;5007805;28;19917;-39
2023/11/17 01:57:37;;;;;;;;;;;;;;;5.97;100.00;101689.59;5000317;28;19917;-41
2023/11/17 02:00:06;;;;;;;;;;;;;;;5.98;100.00;101687.78;5015461;28;20008;-40
2023/11/17 02:02:32;;;;;;;;;;;;;;;6.01;100.00;101695.56;5019293;28;20407;-41
2023/11/17 02:04:57;;;;;;;;;;;;;;;6.02;100.00;101700.75;5024743;28;19972;-40
2023/11/17 02:07:24;;;;;;;;;;;;;;;6.04;100.00;101695.28;5006360;28;19917;-40
2023/11/17 02:09:53;;;;;;;;;;;;;;;6.03;100.00;101690.91;5012868;28;19925;-39
2023/11/17 02:12:29;;;;;;;;;;;;;;;6.05;100.00;101688.94;4993005;28;19961;-40
2023/11/17 02:14:56;;;;;;;;;;;;;;;6.07;100.00;101695.00;5010816;28;19923;-39
2023/11/17 02:17:28;;;;;;;;;;;;;;;6.05;100.00;101696.97;5015357;28;19972;-39
2023/11/17 02:19:53;;;;;;;;;;;;;;;6.05;100.00;101695.13;5006775;28;19944;-39
2023/11/17 02:22:21;;;;;;;;;;;;;;;6.03;100.00;101701.59;4986981;28;19917;-42
2023/11/17 02:24:52;;;;;;;;;;;;;;;6.01;100.00;101688.38;5033538;28;19925;-40
2023/11/17 02:27:29;;;;;;;;;;;;;;;6.01;100.00;101695.56;5033819;28;19909;-39
2023/11/17 02:29:56;;;;;;;;;;;;;;;5.98;100.00;101690.44;5028307;28;19916;-41
2023/11/17 02:32:24;;;;;;;;;;;;;;;5.96;100.00;101690.59;5041911;28;19967;-40
2023/11/17 02:34:52;;;;;;;;;;;;;;;5.94;100.00;101682.69;5049564;28;19918;-40
2023/11/17 02:37:18;;;;;;;;;;;;;;;5.91;100.00;101687.44;5043475;28;19920;-40
2023/11/17 02:39:45;;;;;;;;;;;;;;;5.90;100.00;101678.56;5038908;28;19913;-40
2023/11/17 02:42:10;;;;;;;;;;;;;;;5.90;100.00;101683.91;5032407;28;19917;-41
2023/11/17 02:44:37;;;;;;;;;;;;;;;5.87;100.00;101684.19;5034069;28;19913;-41
2023/11/17 02:47:08;;;;;;;;;;;;;;;5.88;100.00;101688.53;5034732;28;19924;-40
2023/11/17 02:49:42;;;;;;;;;;;;;;;5.88;100.00;101685.03;5037346;28;20002;-40
2023/11/17 02:52:15;;;;;;;;;;;;;;;5.87;100.00;101673.50;5021830;28;20008;-41
2023/11/17 02:54:42;;;;;;;;;;;;;;;5.88;100.00;101675.19;5050529;28;19913;-40
2023/11/17 02:57:08;;;;;;;;;;;;;;;5.87;100.00;101676.16;5027306;28;19921;-40
2023/11/17 02:59:35;;;;;;;;;;;;;;;5.85;100.00;101672.78;5038162;28;20413;-40
2023/11/17 03:02:02;;;;;;;;;;;;;;;5.83;100.00;101674.72;5030744;28;20012;-41
2023/11/17 03:04:27;;;;;;;;;;;;;;;5.84;100.00;101676.41;5038254;28;19952;-41
2023/11/17 03:06:52;;;;;;;;;;;;;;;5.85;100.00;101678.13;5047256;28;19949;-40
2023/11/17 03:09:23;;;;;;;;;;;;;;;5.85;100.00;101678.13;5012618;28;19913;-40
2023/11/17 03:11:54;;;;;;;;;;;;;;;5.80;100.00;101664.31;5013820;28;20350;-40
2023/11/17 03:14:20;;;;;;;;;;;;;;;5.80;100.00;101666.97;5013324;28;20395;-40
2023/11/17 03:16:49;;;;;;;;;;;;;;;5.76;100.00;101668.19;5013283;28;19917;-39
2023/11/17 03:19:14;;;;;;;;;;;;;;;5.72;100.00;101659.63;5020395;28;19917;-40
2023/11/17 03:21:44;;;;;;;;;;;;;;;5.71;100.00;101659.72;5032985;28;19921;-40
2023/11/17 03:24:14;;;;;;;;;;;;;;;5.72;100.00;101662.28;5032163;28;20003;-41
2023/11/17 03:26:45;;;;;;;;;;;;;;;5.74;100.00;101659.50;5033273;28;19966;-40
2023/11/17 03:29:11;;;;;;;;;;;;;;;5.77;100.00;101666.41;5033088;28;19955;-41
2023/11/17 03:31:37;;;;;;;;;;;;;;;5.79;100.00;101672.44;5032579;28;20322;-41
2023/11/17 03:34:02;;;;;;;;;;;;;;;5.78;100.00;101671.59;5032804;28;20323;-40
2023/11/17 03:36:27;;;;;;;;;;;;;;;5.80;100.00;101668.81;5033157;28;20330;-39
2023/11/17 03:38:55;;;;;;;;;;;;;;;5.77;100.00;101669.91;5021599;28;20396;-40
2023/11/17 03:41:22;;;;;;;;;;;;;;;5.76;100.00;101659.34;5013486;28;20011;-40
2023/11/17 03:43:48;;;;;;;;;;;;;;;5.73;100.00;101658.63;5013598;28;19936;-40
2023/11/17 03:46:13;;;;;;;;;;;;;;;5.75;100.00;101661.19;5013709;28;19914;-40
2023/11/17 03:48:38;;;;;;;;;;;;;;;5.75;100.00;101658.50;5014916;28;20019;-39
2023/11/17 03:51:06;;;;;;;;;;;;;;;5.77;100.00;101659.22;5013328;28;20024;-41
2023/11/17 03:53:32;;;;;;;;;;;;;;;5.78;100.00;101660.91;5013693;28;19914;-39
2023/11/17 03:55:57;;;;;;;;;;;;;;;5.81;100.00;101659.81;5013653;28;19919;-40
2023/11/17 03:58:22;;;;;;;;;;;;;;;5.84;100.00;101660.38;5013203;28;19925;-40
2023/11/17 04:00:49;;;;;;;;;;;;;;;5.86;100.00;101674.47;5013005;28;19913;-40
2023/11/17 04:03:14;;;;;;;;;;;;;;;5.86;100.00;101660.25;5013788;28;19923;-40
2023/11/17 04:05:40;;;;;;;;;;;;;;;5.87;100.00;101672.63;5023520;28;19999;-40
2023/11/17 04:08:05;;;;;;;;;;;;;;;5.85;100.00;101672.78;5037210;28;20091;-41
2023/11/17 04:10:30;;;;;;;;;;;;;;;5.82;100.00;101670.38;5029884;28;20041;-41
2023/11/17 04:12:56;;;;;;;;;;;;;;;5.76;100.00;101667.38;5033273;28;19920;-41
2023/11/17 04:15:21;;;;;;;;;;;;;;;5.72;100.00;101678.31;5031593;28;19924;-40
2023/11/17 04:17:46;;;;;;;;;;;;;;;5.71;100.00;101684.63;5013671;28;19920;-40
2023/11/17 04:20:18;;;;;;;;;;;;;;;5.74;100.00;101678.19;5053201;28;19917;-41
2023/11/17 04:22:43;;;;;;;;;;;;;;;5.75;100.00;101677.19;5040435;28;19940;-38
2023/11/17 04:25:09;;;;;;;;;;;;;;;5.78;100.00;101676.94;5037450;28;19917;-39
2023/11/17 04:27:35;;;;;;;;;;;;;;;5.80;100.00;101666.13;5048906;28;19974;-41
2023/11/17 04:30:00;;;;;;;;;;;;;;;5.79;100.00;101673.28;5048333;28;19920;-39
2023/11/17 04:32:25;;;;;;;;;;;;;;;5.80;100.00;101680.34;5056204;28;20007;-40
2023/11/17 04:34:51;;;;;;;;;;;;;;;5.79;100.00;101675.09;5039876;28;19920;-40
2023/11/17 04:37:19;;;;;;;;;;;;;;;5.77;100.00;101680.59;5036096;28;20180;-40
2023/11/17 04:39:44;;;;;;;;;;;;;;;5.81;100.00;101690.03;5036101;28;19912;-39
2023/11/17 04:42:10;;;;;;;;;;;;;;;5.85;100.00;101687.97;5034881;28;20003;-39
2023/11/17 04:44:35;;;;;;;;;;;;;;;5.87;100.00;101685.97;5035763;28;19916;-39
2023/11/17 04:47:00;;;;;;;;;;;;;;;5.87;100.00;101677.97;5019806;28;19968;-39
2023/11/17 04:49:27;;;;;;;;;;;;;;;5.87;100.00;101681.50;5016513;28;19972;-41
2023/11/17 04:51:52;;;;;;;;;;;;;;;5.89;100.00;101684.03;5017057;28;19919;-38
2023/11/17 04:54:17;;;;;;;;;;;;;;;5.92;100.00;101690.00;5025016;28;19917;-38
2023/11/17 04:56:43;;;;;;;;;;;;;;;5.92;100.00;101684.66;5016562;28;19917;-40
2023/11/17 04:59:10;;;;;;;;;;;;;;;5.92;100.00;101684.66;5016247;28;19914;-40
2023/11/17 05:01:35;;;;;;;;;;;;;;;5.96;100.00;101687.09;5017155;28;20202;-39
2023/11/17 05:04:01;;;;;;;;;;;;;;;5.96;100.00;101689.75;5034661;28;20283;-40
2023/11/17 05:06:27;;;;;;;;;;;;;;;5.96;100.00;101695.09;5037898;28;20372;-39
2023/11/17 05:08:53;;;;;;;;;;;;;;;5.93;100.00;101694.38;5040574;28;20437;-41
2023/11/17 05:11:20;;;;;;;;;;;;;;;5.91;100.00;101685.59;5038815;28;19917;-40
2023/11/17 05:13:46;;;;;;;;;;;;;;;5.88;100.00;101693.88;5034059;28;19921;-40
2023/11/17 05:16:14;;;;;;;;;;;;;;;5.84;100.00;101697.78;5035652;28;19917;-40
2023/11/17 05:18:39;;;;;;;;;;;;;;;5.81;100.00;101698.03;5035992;28;20383;-40
2023/11/17 05:21:06;;;;;;;;;;;;;;;5.80;100.00;101696.34;5034136;28;19913;-40
2023/11/17 05:23:31;;;;;;;;;;;;;;;5.79;100.00;101697.31;5035827;28;19917;-39
2023/11/17 05:25:56;;;;;;;;;;;;;;;5.77;100.00;101701.97;5033519;28;19924;-40
2023/11/17 05:28:22;;;;;;;;;;;;;;;5.78;100.00;101710.81;5035634;28;20380;-40
2023/11/17 05:30:47;;;;;;;;;;;;;;;5.78;100.00;101713.50;5039469;28;20283;-40
2023/11/17 05:33:17;;;;;;;;;;;;;;;5.79;100.00;101717.84;5037698;28;20347;-40
2023/11/17 05:35:43;;;;;;;;;;;;;;;5.80;100.00;101711.53;5033047;28;19921;-40
2023/11/17 05:38:08;;;;;;;;;;;;;;;5.80;100.00;101712.38;5026703;28;20003;-40
2023/11/17 05:40:33;;;;;;;;;;;;;;;5.78;100.00;101719.69;5034783;28;19928;-41
2023/11/17 05:42:59;;;;;;;;;;;;;;;5.77;100.00;101712.66;5033605;28;20117;-41
2023/11/17 05:45:24;;;;;;;;;;;;;;;5.77;100.00;101723.34;5045215;28;19920;-40
2023/11/17 05:47:49;;;;;;;;;;;;;;;5.77;100.00;101718.00;5031502;28;19924;-40
2023/11/17 05:50:14;;;;;;;;;;;;;;;5.76;100.00;101721.63;5025323;28;19944;-41
2023/11/17 05:52:41;;;;;;;;;;;;;;;5.76;100.00;101726.13;5038652;28;19920;-40
2023/11/17 05:55:06;;;;;;;;;;;;;;;5.75;100.00;101725.28;5042676;28;19971;-40
2023/11/17 05:57:32;;;;;;;;;;;;;;;5.75;100.00;101732.44;5042724;28;19917;-39
2023/11/17 05:59:57;;;;;;;;;;;;;;;5.76;100.00;101732.31;5037318;28;19916;-40
2023/11/17 06:02:22;;;;;;;;;;;;;;;5.77;100.00;101734.03;5043535;28;20007;-40
2023/11/17 06:04:48;;;;;;;;;;;;;;;5.79;100.00;101734.72;5035808;28;19957;-40
2023/11/17 06:07:13;;;;;;;;;;;;;;;5.82;100.00;101745.16;5036391;28;19994;-40
2023/11/17 06:09:38;;;;;;;;;;;;;;;5.85;100.00;101747.56;5028532;28;19916;-41
2023/11/17 06:12:05;;;;;;;;;;;;;;;5.88;100.00;101750.00;5041113;28;19917;-40
2023/11/17 06:14:31;;;;;;;;;;;;;;;5.90;100.00;101736.50;5034445;28;19977;-40
2023/11/17 06:16:57;;;;;;;;;;;;;;;5.92;100.00;101734.53;5024361;28;19921;-40
2023/11/17 06:19:22;;;;;;;;;;;;;;;5.92;100.00;101732.75;5037691;28;20259;-41
2023/11/17 06:21:48;;;;;;;;;;;;;;;5.97;100.00;101739.53;5034457;28;19913;-39
2023/11/17 06:24:16;;;;;;;;;;;;;;;5.99;100.00;101740.25;5026453;28;19917;-41
2023/11/17 06:26:45;;;;;;;;;;;;;;;5.99;100.00;101742.94;5021577;28;19921;-41
2023/11/17 06:29:13;;;;;;;;;;;;;;;5.97;100.00;101744.88;5033948;28;19923;-40
2023/11/17 06:31:42;;;;;;;;;;;;;;;5.96;100.00;101749.38;5023888;28;20014;-41
2023/11/17 06:34:09;;;;;;;;;;;;;;;5.99;100.00;101749.09;5044608;28;20321;-40
2023/11/17 06:36:37;;;;;;;;;;;;;;;6.00;100.00;101744.59;5035092;28;19920;-40
2023/11/17 06:39:13;;;;;;;;;;;;;;;5.99;100.00;101745.59;5033300;28;19913;-41
2023/11/17 06:41:39;;;;;;;;;;;;;;;6.01;100.00;101740.97;5030325;28;19918;-40
2023/11/17 06:44:04;;;;;;;;;;;;;;;6.02;100.00;101748.00;5018446;28;19921;-39
2023/11/17 06:46:30;;;;;;;;;;;;;;;6.02;100.00;101742.66;5022085;28;20295;-40
2023/11/17 06:48:56;;;;;;;;;;;;;;;6.03;100.00;101742.53;5031330;28;19917;-39
2023/11/17 06:51:23;;;;;;;;;;;;;;;6.04;100.00;101751.41;5017856;28;19972;-40
2023/11/17 06:53:49;;;;;;;;;;;;;;;6.03;100.00;101760.38;5014266;28;19913;-40
2023/11/17 06:56:15;;;;;;;;;;;;;;;6.04;100.00;101757.59;5029534;28;19976;-40
2023/11/17 06:58:40;;;;;;;;;;;;;;;6.04;100.00;101752.25;5036575;28;19916;-41
2023/11/17 07:01:06;;;;;;;;;;;;;;;6.08;100.00;101755.50;5022362;28;19992;-41
2023/11/17 07:03:32;;;;;;;;;;;;;;;6.09;100.00;101754.53;5018390;28;19945;-41
2023/11/17 07:05:57;;;;;;;;;;;;;;;6.12;100.00;101754.25;5026092;28;19917;-40
2023/11/17 07:08:22;;;;;;;;;;;;;;;6.14;100.00;101758.50;5030765;28;19943;-40
2023/11/17 07:10:48;;;;;;;;;;;;;;;6.14;100.00;101763.00;5053182;28;20011;-41
2023/11/17 07:13:13;;;;;;;;;;;;;;;6.15;100.00;101768.22;5047630;28;19970;-41
2023/11/17 07:15:39;;;;;;;;;;;;;;;6.18;100.00;101764.44;5054740;28;19918;-42
2023/11/17 07:18:06;;;;;;;;;;;;;;;6.21;100.00;101774.84;5042888;28;19917;-41
2023/11/17 07:20:31;;;;;;;;;;;;;;;6.25;100.00;101768.28;5013643;28;19933;-39
2023/11/17 07:22:57;;;;;;;;;;;;;;;6.28;100.00;101780.53;5023639;28;19917;-41
2023/11/17 07:25:22;;;;;;;;;;;;;;;6.28;100.00;101773.34;5054531;28;19913;-41
2023/11/17 07:27:48;;;;;;;;;;;;;;;6.30;100.00;101771.41;5024493;28;20626;-42
2023/11/17 07:30:13;;;;;;;;;;;;;;;6.33;100.00;101772.97;5033742;28;19968;-39
2023/11/17 07:32:39;;;;;;;;;;;;;;;6.33;100.00;101778.31;5036259;28;19958;-40
2023/11/17 07:35:06;;;;;;;;;;;;;;;6.34;100.00;101775.50;5042478;28;19921;-41
2023/11/17 07:37:31;;;;;;;;;;;;;;;6.36;100.00;101773.53;5042708;28;19920;-41
2023/11/17 07:39:56;;;;;;;;;;;;;;;6.37;100.00;101775.25;5037485;28;20367;-39
2023/11/17 07:42:23;;;;;;;;;;;;;;;6.38;100.00;101779.63;5050100;28;20426;-40
2023/11/17 07:44:48;;;;;;;;;;;;;;;6.40;100.00;101784.84;5035838;28;19971;-41
2023/11/17 07:47:13;;;;;;;;;;;;;;;6.44;100.00;101780.06;5036332;28;19917;-42
2023/11/17 07:49:38;;;;;;;;;;;;;;;6.48;100.00;101778.84;5033151;28;20306;-41
2023/11/17 07:52:04;;;;;;;;;;;;;;;6.53;100.00;101773.91;5030658;28;20002;-39
2023/11/17 07:54:29;;;;;;;;;;;;;;;6.56;100.00;101779.88;5039405;28;19917;-41
2023/11/17 07:56:55;;;;;;;;;;;;;;;6.60;100.00;101780.44;5037117;28;20012;-41
2023/11/17 07:59:21;;;;;;;;;;;;;;;6.64;100.00;101786.38;5035963;28;19920;-41
2023/11/17 08:01:46;;;;;;;;;;;;;;;6.68;100.00;101794.00;5041056;28;19920;-40
2023/11/17 08:04:12;;;;;;;;;;;;;;;6.72;100.00;101795.44;5041790;28;20067;-40
2023/11/17 08:06:37;;;;;;;;;;;;;;;6.70;100.00;101786.69;5038156;28;19962;-40
2023/11/17 08:09:04;;;;;;;;;;;;;;;6.70;100.00;101786.69;5032725;28;20287;-41
2023/11/17 08:11:29;;;;;;;;;;;;;;;6.71;100.00;101783.00;5038612;28;20272;-39
2023/11/17 08:13:54;;;;;;;;;;;;;;;6.75;100.00;101783.63;5041086;28;19923;-40
2023/11/17 08:16:21;;;;;;;;;;;;;;;6.78;100.00;101789.53;5037321;28;19913;-40
2023/11/17 08:18:47;;;;;;;;;;;;;;;6.80;100.00;101790.25;5040416;28;19927;-39
2023/11/17 08:21:13;;;;;;;;;;;;;;;6.80;100.00;101790.25;5054999;28;20007;-41
2023/11/17 08:23:39;;;;;;;;;;;;;;;6.84;100.00;101792.66;5039842;28;20350;-40
2023/11/17 08:26:05;;;;;;;;;;;;;;;6.90;100.00;101800.13;5048899;28;20367;-39
2023/11/17 08:28:32;;;;;;;;;;;;;;;6.92;100.00;101800.84;5047139;28;19917;-40
2023/11/17 08:30:57;;;;;;;;;;;;;;;6.88;100.00;101805.63;5041308;28;19917;-39
2023/11/17 08:33:23;;;;;;;;;;;;;;;6.91;100.00;101804.53;5042092;28;20015;-39
2023/11/17 08:35:48;;;;;;;;;;;;;;;7.01;100.00;101813.44;5045887;28;20015;-41
2023/11/17 08:38:15;;;;;;;;;;;;;;;7.12;100.00;101812.50;5039735;28;19916;-41
2023/11/17 08:40:40;;;;;;;;;;;;;;;7.22;100.00;101808.88;5041612;28;19920;-40
2023/11/17 08:43:06;;;;;;;;;;;;;;;7.35;100.00;101815.81;5045775;28;20304;-40
2023/11/17 08:45:32;;;;;;;;;;;;;;;7.36;100.00;101817.50;5046931;28;20264;-41
2023/11/17 08:48:01;;;;;;;;;;;;;;;7.42;100.00;101824.97;5040944;28;20083;-41
2023/11/17 08:50:26;;;;;;;;;;;;;;;7.48;100.00;101822.59;5054416;28;21549;-41
2023/11/17 08:52:52;;;;;;;;;;;;;;;7.55;100.00;101828.25;5057314;28;19917;-40
2023/11/17 08:55:17;;;;;;;;;;;;;;;7.62;100.00;101816.00;5058556;28;19924;-40
2023/11/17 08:57:44;;;;;;;;;;;;;;;7.70;100.00;101818.00;5052326;28;20279;-41
2023/11/17 09:00:18;;;;;;;;;;;;;;;7.81;100.00;101825.03;5045931;28;20346;-41
2023/11/17 09:02:45;;;;;;;;;;;;;;;7.79;100.00;101825.19;5040036;28;19952;-40
2023/11/17 09:05:10;;;;;;;;;;;;;;;7.78;100.00;101825.34;5041456;28;19917;-39
2023/11/17 09:07:40;;;;;;;;;;;;;;;7.66;100.00;101833.50;5034768;28;19921;-39
2023/11/17 09:10:08;;;;;;;;;;;;;;;7.63;100.00;101825.72;5035831;28;19920;-40
2023/11/17 09:12:35;;;;;;;;;;;;;;;7.60;100.00;101833.19;5039350;28;19963;-41
2023/11/17 09:15:00;;;;;;;;;;;;;;;7.64;100.00;101826.59;5035925;28;20272;-40
2023/11/17 09:17:27;;;;;;;;;;;;;;;7.66;100.00;101820.09;5041291;28;19928;-41
2023/11/17 09:19:53;;;;;;;;;;;;;;;7.68;100.00;101828.84;5036590;28;20319;-39
2023/11/17 09:22:18;;;;;;;;;;;;;;;7.72;100.00;101824.06;5042018;28;19971;-38
2023/11/17 09:24:43;;;;;;;;;;;;;;;7.73;100.00;101831.09;5054657;28;19922;-40
2023/11/17 09:27:10;;;;;;;;;;;;;;;7.77;100.00;101820.97;5045976;28;19913;-41
2023/11/17 09:29:36;;;;;;;;;;;;;;;7.98;100.00;101837.78;5036309;28;19955;-40
2023/11/17 09:32:01;;;;;;;;;;;;;;;8.26;100.00;101840.56;5035576;28;20141;-38
2023/11/17 09:34:27;;;;;;;;;;;;;;;8.47;100.00;101832.38;5038197;28;19923;-40
2023/11/17 09:36:52;;;;;;;;;;;;;;;8.63;100.00;101847.91;5037397;28;19988;-39
2023/11/17 09:39:18;;;;;;;;;;;;;;;8.62;100.00;101840.84;5035298;28;19913;-39
2023/11/17 09:41:43;;;;;;;;;;;;;;;8.76;100.00;101835.84;5035043;28;20450;-42
2023/11/17 09:44:08;;;;;;;;;;;;;;;8.67;100.00;101836.72;5045823;28;19917;-40
2023/11/17 09:46:47;;;;;;;;;;;;;;;8.61;100.00;101844.50;5033413;28;19967;-40
2023/11/17 09:49:14;;;;;;;;;;;;;;;8.61;100.00;101840.00;5034840;28;19959;-39
2023/11/17 09:51:39;;;;;;;;;;;;;;;8.72;100.00;101842.50;5031933;28;19913;-39
2023/11/17 09:54:04;;;;;;;;;;;;;;;8.75;100.00;101861.00;5034813;28;19919;-39
2023/11/17 09:56:29;;;;;;;;;;;;;;;8.81;100.00;101850.69;5031525;28;20003;-41
2023/11/17 09:58:55;;;;;;;;;;;;;;;8.69;100.00;101848.19;5026112;28;19917;-39
2023/11/17 10:01:22;;;;;;;;;;;;;;;8.90;100.00;101847.09;5033231;28;20368;-39
2023/11/17 10:03:48;;;;;;;;;;;;;;;9.09;100.00;101843.53;5034156;28;19923;-40
2023/11/17 10:06:14;;;;;;;;;;;;;;;9.35;100.00;101843.69;5034132;28;20063;-40
2023/11/17 10:08:39;;;;;;;;;;;;;;;9.64;100.00;101848.91;5034793;28;20387;-40
2023/11/17 10:11:05;;;;;;;;;;;;;;;9.76;100.00;101842.28;5026905;28;20004;-40
2023/11/17 10:13:31;;;;;;;;;;;;;;;9.92;100.00;101840.78;5033413;28;19917;-40
2023/11/17 10:15:58;;;;;;;;;;;;;;;9.74;100.00;101843.44;5034881;28;19967;-40
2023/11/17 10:18:24;;;;;;;;;;;;;;;9.57;100.00;101840.56;5029557;28;19967;-41
2023/11/17 10:20:50;;;;;;;;;;;;;;;9.40;100.00;101844.06;5034497;28;19913;-40
2023/11/17 10:23:15;;;;;;;;;;;;;;;9.41;100.00;101843.94;5024276;28;20410;-41
2023/11/17 10:25:41;;;;;;;;;;;;;;;9.55;100.00;101847.09;5023830;28;20004;-41
2023/11/17 10:28:06;;;;;;;;;;;;;;;9.51;100.00;101843.88;5022673;28;19913;-41
2023/11/17 10:30:37;;;;;;;;;;;;;;;9.52;100.00;101850.94;5022712;28;19914;-39
2023/11/17 10:33:02;;;;;;;;;;;;;;;9.45;100.00;101844.47;5016012;28;19914;-40
2023/11/17 10:35:31;;;;;;;;;;;;;;;9.34;100.00;101858.94;5014924;28;20024;-40
2023/11/17 10:37:58;;;;;;;;;;;;;;;9.33;100.00;101854.56;5014582;28;19913;-40
2023/11/17 10:40:33;;;;;;;;;;;;;;;9.27;100.00;101863.25;5014505;28;20359;-39
2023/11/17 10:43:05;;;;;;;;;;;;;;;9.43;100.00;101858.06;5014197;28;19958;-40
2023/11/17 10:45:32;;;;;;;;;;;;;;;9.36;100.00;101856.13;5013976;28;19913;-40
2023/11/17 10:47:59;;;;;;;;;;;;;;;9.50;100.00;101857.44;5014957;28;19996;-40
2023/11/17 10:50:24;;;;;;;;;;;;;;;9.68;100.00;101861.03;5016008;28;20383;-40
2023/11/17 10:52:50;;;;;;;;;;;;;;;9.63;100.00;101871.38;5015392;28;19913;-39
2023/11/17 10:55:15;;;;;;;;;;;;;;;9.45;100.00;101869.50;5013988;28;20056;-40
2023/11/17 10:57:41;;;;;;;;;;;;;;;9.52;100.00;101871.59;5014073;28;19948;-41
2023/11/17 11:00:16;;;;;;;;;;;;;;;9.61;100.00;101868.84;5014051;28;19913;-41
2023/11/17 11:02:42;;;;;;;;;;;;;;;9.62;100.00;101867.84;5013752;28;19917;-41
2023/11/17 11:05:07;;;;;;;;;;;;;;;9.44;100.00;101867.81;5013850;28;20467;-41
2023/11/17 11:07:43;;;;;;;;;;;;;;;9.45;100.00;101877.56;5014177;28;19959;-40
2023/11/17 11:10:14;;;;;;;;;;;;;;;9.51;100.00;101864.53;5013815;28;19913;-41
2023/11/17 11:12:40;;;;;;;;;;;;;;;9.60;100.00;101863.63;5013660;28;19921;-39
2023/11/17 11:15:05;;;;;;;;;;;;;;;9.76;100.00;101869.16;4996726;28;19913;-40
2023/11/17 11:17:32;;;;;;;;;;;;;;;9.74;100.00;101871.19;4995930;28;19913;-42
2023/11/17 11:19:59;;;;;;;;;;;;;;;9.96;100.00;101869.91;5013528;28;19917;-39
2023/11/17 11:22:24;;;;;;;;;;;;;;;10.04;100.00;101867.28;5013367;28;19918;-41
2023/11/17 11:24:49;;;;;;;;;;;;;;;10.19;100.00;101870.28;4996231;28;20390;-41
2023/11/17 11:27:15;;;;;;;;;;;;;;;10.40;100.00;101874.50;4996764;28;19953;-40
2023/11/17 11:29:41;;;;;;;;;;;;;;;10.74;100.00;101874.59;4996681;28;20379;-40
2023/11/17 11:32:06;;;;;;;;;;;;;;;11.06;100.00;101871.31;5013683;28;19913;-41
2023/11/17 11:34:34;;;;;;;;;;;;;;;11.55;100.00;101874.19;5017049;28;19937;-40
2023/11/17 11:36:59;;;;;;;;;;;;;;;11.47;100.00;101884.13;5018605;28;19913;-41
2023/11/17 11:39:25;;;;;;;;;;;;;;;11.42;100.00;101879.19;5018364;28;19960;-41
2023/11/17 11:41:51;;;;;;;;;;;;;;;11.45;100.00;101883.41;4998947;28;20008;-41
2023/11/17 11:44:16;;;;;;;;;;;;;;;11.05;100.00;101884.91;5015872;28;20376;-41
2023/11/17 11:46:41;;;;;;;;;;;;;;;10.94;100.00;101896.81;5023719;28;19913;-41
2023/11/17 11:49:07;;;;;;;;;;;;;;;10.68;100.00;101897.63;5019506;28;19916;-40
2023/11/17 11:51:34;;;;;;;;;;;;;;;10.57;100.00;101884.44;5007085;28;19936;-40
2023/11/17 11:54:06;;;;;;;;;;;;;;;10.47;100.00;101884.50;4999596;28;19917;-40
2023/11/17 11:56:36;;;;;;;;;;;;;;;10.80;100.00;101883.94;5002792;28;19920;-40
2023/11/17 11:59:05;;;;;;;;;;;;;;;10.67;100.00;101879.78;5019587;28;20412;-41
2023/11/17 12:01:32;;;;;;;;;;;;;;;10.58;100.00;101882.56;5005820;28;19963;-40
2023/11/17 12:04:01;;;;;;;;;;;;;;;10.59;100.00;101877.03;5028821;28;19924;-40
2023/11/17 12:06:27;;;;;;;;;;;;;;;10.57;100.00;101889.81;4998375;28;20291;-40
2023/11/17 12:08:56;;;;;;;;;;;;;;;10.74;100.00;101886.25;5012821;28;19921;-39
2023/11/17 12:11:22;;;;;;;;;;;;;;;10.93;100.00;101892.44;5012932;28;19913;-39
2023/11/17 12:13:54;;;;;;;;;;;;;;;10.75;100.00;101887.09;5013146;28;19921;-40
2023/11/17 12:16:28;;;;;;;;;;;;;;;10.45;100.00;101886.53;5012498;28;19924;-40
2023/11/17 12:18:54;;;;;;;;;;;;;;;10.30;100.00;101883.53;5013023;28;20299;-39
2023/11/17 12:21:22;;;;;;;;;;;;;;;10.09;100.00;101896.41;5013707;28;19933;-40
2023/11/17 12:23:54;;;;;;;;;;;;;;;9.98;100.00;101885.84;5034557;28;19917;-41
2023/11/17 12:26:20;;;;;;;;;;;;;;;9.82;100.00;101900.84;5041914;28;20036;-40
2023/11/17 12:28:45;;;;;;;;;;;;;;;9.71;100.00;101886.75;5017832;28;20000;-39
2023/11/17 12:31:14;;;;;;;;;;;;;;;9.59;100.00;101896.88;5024638;28;20018;-40